createdAt,value
2023-03-04T00:02:53.657Z,2.66
2023-03-04T00:06:55.203Z,2.65
2023-03-04T00:10:56.809Z,2.61
2023-03-04T00:14:58.539Z,2.51
2023-03-04T00:19:00.141Z,2.45
2023-03-04T00:23:01.646Z,2.37
2023-03-04T00:27:03.200Z,2.33
2023-03-04T00:31:05.376Z,2.27
2023-03-04T00:35:07.513Z,2.27
2023-03-04T00:39:09.079Z,2.19
2023-03-04T00:43:10.611Z,2.15
2023-03-04T00:47:12.311Z,2.08
2023-03-04T00:51:13.854Z,2.08
2023-03-04T00:55:15.894Z,2.11
2023-03-04T00:59:17.538Z,2.09
2023-03-04T01:03:19.076Z,2.05
2023-03-04T01:07:20.629Z,2.07
2023-03-04T01:11:22.392Z,1.98
2023-03-04T01:15:24.096Z,1.93
2023-03-04T01:19:25.647Z,1.90
2023-03-04T01:23:27.202Z,1.90
2023-03-04T01:27:28.795Z,1.90
2023-03-04T01:31:30.349Z,1.88
2023-03-04T01:35:31.963Z,1.82
2023-03-04T01:39:33.927Z,1.83
2023-03-04T01:43:37.803Z,1.82
2023-03-04T01:47:39.563Z,1.83
2023-03-04T01:51:44.129Z,1.85
2023-03-04T01:55:45.753Z,1.86
2023-03-04T02:00:07.789Z,1.86
2023-03-04T02:04:21.148Z,1.82
2023-03-04T02:08:24.607Z,1.81
2023-03-04T02:12:26.247Z,1.81
2023-03-04T02:16:28.032Z,1.75
2023-03-04T02:20:45.612Z,1.71
2023-03-04T02:24:54.385Z,1.64
2023-03-04T02:28:58.438Z,1.64
2023-03-04T02:33:00.023Z,1.57
2023-03-04T02:37:02.902Z,1.57
2023-03-04T02:41:09.464Z,1.53
2023-03-04T02:45:44.294Z,1.56
2023-03-04T02:49:46.744Z,1.52
2023-03-04T02:53:48.387Z,1.49
2023-03-04T02:57:50.100Z,1.47
2023-03-04T03:01:52.226Z,1.46
2023-03-04T03:05:54.722Z,1.44
2023-03-04T03:09:57.147Z,1.42
2023-03-04T03:13:58.726Z,1.43
2023-03-04T03:18:01.005Z,1.42
2023-03-04T03:22:02.779Z,1.38
2023-03-04T03:26:05.754Z,1.35
2023-03-04T03:30:09.098Z,1.35
2023-03-04T03:34:11.627Z,1.32
2023-03-04T03:38:13.277Z,1.32
2023-03-04T03:42:14.850Z,1.34
2023-03-04T03:46:16.448Z,1.36
2023-03-04T03:50:18.039Z,1.35
2023-03-04T03:54:19.601Z,1.31
2023-03-04T03:58:21.755Z,1.21
2023-03-04T04:02:23.765Z,1.18
2023-03-04T04:06:25.814Z,1.17
2023-03-04T04:10:27.386Z,1.18
2023-03-04T04:14:28.928Z,1.17
2023-03-04T04:18:30.523Z,1.13
2023-03-04T04:22:32.146Z,1.17
2023-03-04T04:26:33.675Z,1.16
2023-03-04T04:30:35.551Z,1.14
2023-03-04T04:34:37.226Z,1.16
2023-03-04T04:38:38.800Z,1.11
2023-03-04T04:42:40.430Z,1.10
2023-03-04T04:46:42.724Z,1.10
2023-03-04T04:50:44.255Z,1.08
2023-03-04T04:54:45.839Z,1.07
2023-03-04T04:58:47.941Z,1.04
2023-03-04T05:02:49.501Z,1.02
2023-03-04T05:06:51.031Z,0.99
2023-03-04T05:10:53.738Z,0.98
2023-03-04T05:14:55.244Z,0.95
2023-03-04T05:18:56.802Z,0.92
2023-03-04T05:22:58.562Z,0.93
2023-03-04T05:27:01.556Z,0.90
2023-03-04T05:31:04.298Z,0.92
2023-03-04T05:35:06.459Z,0.99
2023-03-04T05:39:07.956Z,1.04
2023-03-04T05:43:10.239Z,1.13
2023-03-04T05:47:11.968Z,1.20
2023-03-04T05:51:13.686Z,1.21
2023-03-04T05:55:16.167Z,1.20
2023-03-04T05:59:20.534Z,1.25
2023-03-04T06:03:22.603Z,1.28
2023-03-04T06:07:24.447Z,1.35
2023-03-04T06:11:26.040Z,1.36
2023-03-04T06:15:28.015Z,1.39
2023-03-04T06:19:29.548Z,1.42
2023-03-04T06:23:31.434Z,1.44
2023-03-04T06:27:33.397Z,1.50
2023-03-04T06:31:35.089Z,1.67
2023-03-04T06:35:36.700Z,1.57
2023-03-04T06:39:38.340Z,1.68
2023-03-04T06:43:40.201Z,1.70
2023-03-04T06:47:41.844Z,1.71
2023-03-04T06:51:43.385Z,1.81
2023-03-04T06:55:44.945Z,1.89
2023-03-04T06:59:46.611Z,1.95
2023-03-04T07:03:49.315Z,1.92
2023-03-04T07:07:50.877Z,2.02
2023-03-04T07:11:52.405Z,2.11
2023-03-04T07:15:53.948Z,2.20
2023-03-04T07:19:55.568Z,2.22
2023-03-04T07:23:57.179Z,2.29
2023-03-04T07:27:58.735Z,2.38
2023-03-04T07:32:00.399Z,2.44
2023-03-04T07:36:02.056Z,2.48
2023-03-04T07:40:03.996Z,2.55
2023-03-04T07:44:07.918Z,2.53
2023-03-04T07:48:09.588Z,2.63
2023-03-04T07:52:11.127Z,2.68
2023-03-04T07:56:14.815Z,2.69
2023-03-04T08:00:17.618Z,2.81
2023-03-04T08:04:19.203Z,2.86
2023-03-04T08:08:20.821Z,2.95
2023-03-04T08:12:24.492Z,3.01
2023-03-04T08:16:26.737Z,3.05
2023-03-04T08:20:28.222Z,3.12
2023-03-04T08:24:29.792Z,3.12
2023-03-04T08:28:31.363Z,3.16
2023-03-04T08:32:33.103Z,3.20
2023-03-04T08:36:34.791Z,3.25
2023-03-04T08:40:36.345Z,3.31
2023-03-04T08:44:37.881Z,3.35
2023-03-04T08:48:39.665Z,3.39
2023-03-04T08:52:41.250Z,3.49
2023-03-04T08:56:42.818Z,3.54
2023-03-04T09:00:48.412Z,3.56
2023-03-04T09:04:50.022Z,3.67
2023-03-04T09:08:51.628Z,3.72
2023-03-04T09:12:53.567Z,3.80
2023-03-04T09:16:55.161Z,3.82
2023-03-04T09:20:56.760Z,3.92
2023-03-04T09:24:58.397Z,3.95
2023-03-04T09:29:01.750Z,4.00
2023-03-04T09:33:03.475Z,4.00
2023-03-04T09:37:05.030Z,4.08
2023-03-04T09:41:16.194Z,4.13
2023-03-04T09:45:22.035Z,4.20
2023-03-04T09:49:24.480Z,4.26
2023-03-04T09:53:53.669Z,4.31
2023-03-04T09:58:16.639Z,4.35
2023-03-04T10:02:32.180Z,4.39
2023-03-04T10:06:34.116Z,4.43
2023-03-04T10:10:39.522Z,4.47
2023-03-04T10:14:51.259Z,4.49
2023-03-04T10:18:58.528Z,4.54
2023-03-04T10:23:08.937Z,4.65
2023-03-04T10:27:15.477Z,4.68
2023-03-04T10:31:38.130Z,4.71
2023-03-04T10:35:41.003Z,4.75
2023-03-04T10:39:44.776Z,4.83
2023-03-04T10:44:12.170Z,4.83
2023-03-04T10:48:23.795Z,4.90
2023-03-04T10:52:31.903Z,4.99
2023-03-04T10:56:46.263Z,5.05
2023-03-04T11:01:06.724Z,5.12
2023-03-04T11:05:19.359Z,5.17
2023-03-04T11:09:29.684Z,5.23
2023-03-04T11:13:31.692Z,5.23
2023-03-04T11:17:47.057Z,5.22
2023-03-04T11:21:49.540Z,5.29
2023-03-04T11:26:07.997Z,5.33
2023-03-04T11:30:47.421Z,5.44
2023-03-04T11:34:57.077Z,5.47
2023-03-04T11:38:59.958Z,5.52
2023-03-04T11:43:07.436Z,5.59
2023-03-04T11:47:38.271Z,5.62
2023-03-04T11:51:59.861Z,5.69
2023-03-04T11:56:36.640Z,5.74
2023-03-04T12:00:55.831Z,5.88
2023-03-04T12:05:15.503Z,5.93
2023-03-04T12:09:45.001Z,6.01
2023-03-04T12:14:09.297Z,6.01
2023-03-04T12:18:35.884Z,5.95
2023-03-04T12:22:51.528Z,5.88
2023-03-04T12:27:12.184Z,5.87
2023-03-04T12:31:18.938Z,5.85
2023-03-04T12:35:30.146Z,5.92
2023-03-04T12:39:42.564Z,5.96
2023-03-04T12:44:05.419Z,6.06
2023-03-04T12:48:11.873Z,6.06
2023-03-04T12:52:38.449Z,6.06
2023-03-04T12:56:51.921Z,6.08
2023-03-04T13:01:25.627Z,6.01
2023-03-04T13:05:58.134Z,5.93
2023-03-04T13:10:12.802Z,6.03
2023-03-04T13:14:15.051Z,6.02
2023-03-04T13:18:32.409Z,5.99
2023-03-04T13:22:39.902Z,5.95
2023-03-04T13:26:41.563Z,5.95
2023-03-04T13:31:18.217Z,5.88
2023-03-04T13:35:50.991Z,5.92
2023-03-04T13:40:23.242Z,5.90
2023-03-04T13:44:43.055Z,5.88
2023-03-04T13:48:50.857Z,5.92
2023-03-04T13:52:53.001Z,5.90
2023-03-04T13:57:00.458Z,5.87
2023-03-04T14:01:02.035Z,5.84
2023-03-04T14:05:03.839Z,5.83
2023-03-04T14:09:13.798Z,5.78
2023-03-04T14:13:15.419Z,5.81
2023-03-04T14:17:23.956Z,5.81
2023-03-04T14:21:25.996Z,5.84
2023-03-04T14:25:27.519Z,5.83
2023-03-04T14:29:31.125Z,5.87
2023-03-04T14:33:32.750Z,5.81
2023-03-04T14:37:44.453Z,5.80
2023-03-04T14:41:48.301Z,5.84
2023-03-04T14:45:53.176Z,5.90
2023-03-04T14:49:55.145Z,5.96
2023-03-04T14:53:57.720Z,5.96
2023-03-04T14:58:22.569Z,6.02
2023-03-04T15:02:31.479Z,6.02
2023-03-04T15:06:39.553Z,6.02
2023-03-04T15:10:41.161Z,6.02
2023-03-04T15:14:45.504Z,6.03
2023-03-04T15:19:23.229Z,6.06
2023-03-04T15:23:25.992Z,6.05
2023-03-04T15:27:29.439Z,6.10
2023-03-04T15:31:31.061Z,6.10
2023-03-04T15:35:33.445Z,6.11
2023-03-04T15:39:35.152Z,6.11
2023-03-04T15:43:36.842Z,6.13
2023-03-04T15:47:38.397Z,6.14
2023-03-04T15:51:40.343Z,6.16
2023-03-04T15:55:45.185Z,6.16
2023-03-04T15:59:46.989Z,6.11
2023-03-04T16:03:49.260Z,6.08
2023-03-04T16:07:51.980Z,6.06
2023-03-04T16:11:56.378Z,6.02
2023-03-04T16:15:58.058Z,5.98
2023-03-04T16:19:59.639Z,5.96
2023-03-04T16:24:01.501Z,5.95
2023-03-04T16:28:04.050Z,5.95
2023-03-04T16:32:06.018Z,5.95
2023-03-04T16:36:22.106Z,5.93
2023-03-04T16:40:26.967Z,5.92
2023-03-04T16:44:28.529Z,5.90
2023-03-04T16:48:30.139Z,5.87
2023-03-04T16:52:33.484Z,5.87
2023-03-04T16:56:35.120Z,5.84
2023-03-04T17:00:36.652Z,5.84
2023-03-04T17:04:38.254Z,5.84
2023-03-04T17:08:40.238Z,5.83
2023-03-04T17:12:42.360Z,5.81
2023-03-04T17:16:43.985Z,5.81
2023-03-04T17:20:45.705Z,5.78
2023-03-04T17:24:47.375Z,5.77
2023-03-04T17:28:50.381Z,5.75
2023-03-04T17:32:52.063Z,5.74
2023-03-04T17:36:53.686Z,5.74
2023-03-04T17:40:56.406Z,5.73
2023-03-04T17:44:58.028Z,5.70
2023-03-04T17:48:59.699Z,5.73
2023-03-04T17:53:01.283Z,5.69
2023-03-04T17:57:02.866Z,5.70
2023-03-04T18:01:11.511Z,5.67
2023-03-04T18:05:13.083Z,5.67
2023-03-04T18:09:14.835Z,5.67
2023-03-04T18:13:16.551Z,5.67
2023-03-04T18:17:18.197Z,5.66
2023-03-04T18:21:20.600Z,5.65
2023-03-04T18:25:22.197Z,5.65
2023-03-04T18:29:23.844Z,5.66
2023-03-04T18:33:25.568Z,5.66
2023-03-04T18:37:27.158Z,5.66
2023-03-04T18:41:28.865Z,5.65
2023-03-04T18:45:30.480Z,5.65
2023-03-04T18:49:32.249Z,5.63
2023-03-04T18:53:33.806Z,5.63
2023-03-04T18:57:38.267Z,5.63
2023-03-04T19:01:40.419Z,5.62
2023-03-04T19:05:42.858Z,5.65
2023-03-04T19:09:44.646Z,5.62
2023-03-04T19:13:47.537Z,5.63
2023-03-04T19:17:49.223Z,5.62
2023-03-04T19:21:50.710Z,5.62
2023-03-04T19:25:52.292Z,5.63
2023-03-04T19:29:53.943Z,5.60
2023-03-04T19:33:55.538Z,5.62
2023-03-04T19:37:57.030Z,5.62
2023-03-04T19:41:58.593Z,5.63
2023-03-04T19:46:00.110Z,5.60
2023-03-04T19:50:01.914Z,5.60
2023-03-04T19:54:03.641Z,5.59
2023-03-04T19:58:05.203Z,5.60
2023-03-04T20:02:07.019Z,5.60
2023-03-04T20:06:09.089Z,5.58
2023-03-04T20:10:11.627Z,5.56
2023-03-04T20:14:13.454Z,5.56
2023-03-04T20:18:14.994Z,5.55
2023-03-04T20:22:16.580Z,5.58
2023-03-04T20:26:18.510Z,5.55
2023-03-04T20:30:26.590Z,5.56
2023-03-04T20:34:28.273Z,5.55
2023-03-04T20:38:29.838Z,5.55
2023-03-04T20:42:31.988Z,5.56
2023-03-04T20:46:39.637Z,5.55
2023-03-04T20:50:41.395Z,5.56
2023-03-04T20:54:43.075Z,5.58
2023-03-04T20:58:46.294Z,5.58
2023-03-04T21:02:47.886Z,5.56
2023-03-04T21:06:51.541Z,5.56
2023-03-04T21:10:53.136Z,5.58
2023-03-04T21:14:54.753Z,5.58
2023-03-04T21:18:56.945Z,5.59
2023-03-04T21:22:58.654Z,5.60
2023-03-04T21:27:01.488Z,5.60
2023-03-04T21:31:04.405Z,5.63
2023-03-04T21:35:06.322Z,5.60
2023-03-04T21:39:08.157Z,5.62
2023-03-04T21:43:09.801Z,5.62
2023-03-04T21:47:11.410Z,5.60
2023-03-04T21:51:14.892Z,5.62
2023-03-04T21:55:16.560Z,5.62
2023-03-04T21:59:18.370Z,5.62
2023-03-04T22:03:21.575Z,5.62
2023-03-04T22:07:23.182Z,5.62
2023-03-04T22:11:25.039Z,5.60
2023-03-04T22:15:26.592Z,5.60
2023-03-04T22:19:31.739Z,5.59
2023-03-04T22:23:33.587Z,5.59
2023-03-04T22:27:35.111Z,5.59
2023-03-04T22:31:38.307Z,5.56
2023-03-04T22:35:40.369Z,5.56
2023-03-04T22:39:42.018Z,5.56
2023-03-04T22:43:44.262Z,5.56
2023-03-04T22:47:51.463Z,5.56
2023-03-04T22:51:53.116Z,5.58
2023-03-04T22:55:58.502Z,5.56
2023-03-04T23:00:00.142Z,5.58
2023-03-04T23:04:02.209Z,5.56
2023-03-04T23:08:04.038Z,5.58
2023-03-04T23:12:06.265Z,5.56
2023-03-04T23:16:11.101Z,5.56
2023-03-04T23:20:16.129Z,5.56
2023-03-04T23:24:19.493Z,5.55
2023-03-04T23:28:21.129Z,5.58
2023-03-04T23:32:22.830Z,5.56
2023-03-04T23:36:29.552Z,5.56
2023-03-04T23:40:31.151Z,5.58
2023-03-04T23:44:32.710Z,5.59
2023-03-04T23:48:34.373Z,5.59
2023-03-04T23:52:35.908Z,5.59
2023-03-04T23:56:37.835Z,5.59
